createdAt,value
2023-01-07T00:00:29.033Z,3.57
2023-01-07T00:03:17.972Z,3.57
2023-01-07T00:05:58.990Z,3.59
2023-01-07T00:08:55.980Z,3.60
2023-01-07T00:11:51.988Z,3.60
2023-01-07T00:14:38.969Z,3.61
2023-01-07T00:17:12.090Z,3.61
2023-01-07T00:19:58.997Z,3.61
2023-01-07T00:22:32.135Z,3.64
2023-01-07T00:25:19.014Z,3.65
2023-01-07T00:27:52.119Z,3.64
2023-01-07T00:30:38.981Z,3.63
2023-01-07T00:33:14.518Z,3.63
2023-01-07T00:36:07.990Z,3.64
2023-01-07T00:38:49.014Z,3.64
2023-01-07T00:41:42.974Z,3.65
2023-01-07T00:44:37.026Z,3.64
2023-01-07T00:47:23.991Z,3.65
2023-01-07T00:49:57.064Z,3.65
2023-01-07T00:52:44.006Z,3.66
2023-01-07T00:55:23.984Z,3.67
2023-01-07T00:58:17.997Z,3.68
2023-01-07T01:01:07.069Z,3.67
2023-01-07T01:03:47.001Z,3.69
2023-01-07T01:06:41.008Z,3.70
2023-01-07T01:09:34.988Z,3.71
2023-01-07T01:12:22.006Z,3.69
2023-01-07T01:14:55.117Z,3.70
2023-01-07T01:17:42.023Z,3.69
2023-01-07T01:20:19.107Z,3.69
2023-01-07T01:23:06.044Z,3.71
2023-01-07T01:25:40.085Z,3.70
2023-01-07T01:28:26.990Z,3.70
2023-01-07T01:31:10.059Z,3.70
2023-01-07T01:34:07.007Z,3.69
2023-01-07T01:37:01.023Z,3.71
2023-01-07T01:39:48.023Z,3.72
2023-01-07T01:42:29.101Z,3.72
2023-01-07T01:45:17.029Z,3.72
2023-01-07T01:48:06.027Z,3.72
2023-01-07T01:50:55.017Z,3.72
2023-01-07T01:53:38.112Z,3.70
2023-01-07T01:56:32.036Z,3.71
2023-01-07T01:59:11.165Z,3.71
2023-01-07T02:01:58.161Z,3.72
2023-01-07T02:04:34.117Z,3.72
2023-01-07T02:07:24.017Z,3.73
2023-01-07T02:10:12.142Z,3.71
2023-01-07T02:13:21.013Z,3.72
2023-01-07T02:15:57.188Z,3.73
2023-01-07T02:19:16.014Z,3.73
2023-01-07T02:22:12.032Z,3.72
2023-01-07T02:25:36.024Z,3.71
2023-01-07T02:29:00.042Z,3.73
2023-01-07T02:32:11.048Z,3.71
2023-01-07T02:35:05.062Z,3.71
2023-01-07T02:38:27.036Z,3.70
2023-01-07T02:41:46.043Z,3.71
2023-01-07T02:44:42.148Z,3.72
2023-01-07T02:47:29.031Z,3.71
2023-01-07T02:50:09.034Z,3.70
2023-01-07T02:53:03.032Z,3.71
2023-01-07T02:55:56.041Z,3.71
2023-01-07T02:58:54.126Z,3.72
2023-01-07T03:02:10.044Z,3.75
2023-01-07T03:05:02.144Z,3.75
2023-01-07T03:08:26.066Z,3.74
2023-01-07T03:11:08.144Z,3.74
2023-01-07T03:14:05.071Z,3.70
2023-01-07T03:16:38.288Z,3.71
2023-01-07T03:19:29.030Z,3.70
2023-01-07T03:22:05.166Z,3.70
2023-01-07T03:24:54.042Z,3.69
2023-01-07T03:27:37.063Z,3.72
2023-01-07T03:30:33.048Z,3.73
2023-01-07T03:33:28.073Z,3.72
2023-01-07T03:36:12.079Z,3.73
2023-01-07T03:39:06.037Z,3.71
2023-01-07T03:42:15.041Z,3.72
2023-01-07T03:44:55.071Z,3.74
2023-01-07T03:47:44.071Z,3.75
2023-01-07T03:50:17.217Z,3.76
2023-01-07T03:53:04.080Z,3.75
2023-01-07T03:55:37.177Z,3.74
2023-01-07T03:58:17.071Z,3.75
2023-01-07T04:01:04.197Z,3.74
2023-01-07T04:03:51.072Z,3.73
2023-01-07T04:06:24.212Z,3.75
2023-01-07T04:09:11.095Z,3.74
2023-01-07T04:11:44.154Z,3.74
2023-01-07T04:14:31.093Z,3.71
2023-01-07T04:17:14.100Z,3.73
2023-01-07T04:20:01.077Z,3.72
2023-01-07T04:22:43.072Z,3.72
2023-01-07T04:25:37.109Z,3.70
2023-01-07T04:28:24.084Z,3.70
2023-01-07T04:30:57.199Z,3.70
2023-01-07T04:33:44.098Z,3.70
2023-01-07T04:36:17.217Z,3.70
2023-01-07T04:39:04.104Z,3.70
2023-01-07T04:41:37.188Z,3.70
2023-01-07T04:44:24.075Z,3.71
2023-01-07T04:46:57.238Z,3.70
2023-01-07T04:49:44.109Z,3.70
2023-01-07T04:52:17.246Z,3.72
2023-01-07T04:55:04.085Z,3.72
2023-01-07T04:57:37.164Z,3.73
2023-01-07T05:00:24.101Z,3.73
2023-01-07T05:02:57.249Z,3.74
2023-01-07T05:05:44.120Z,3.74
2023-01-07T05:08:17.185Z,3.76
2023-01-07T05:11:04.121Z,3.75
2023-01-07T05:13:37.229Z,3.76
2023-01-07T05:16:24.098Z,3.77
2023-01-07T05:18:57.275Z,3.75
2023-01-07T05:21:44.142Z,3.78
2023-01-07T05:24:24.107Z,3.76
2023-01-07T05:27:18.105Z,3.79
2023-01-07T05:30:05.138Z,3.78
2023-01-07T05:32:38.234Z,3.80
2023-01-07T05:35:25.121Z,3.80
2023-01-07T05:38:05.124Z,3.82
2023-01-07T05:41:02.106Z,3.79
2023-01-07T05:43:49.109Z,3.79
2023-01-07T05:46:29.165Z,3.77
2023-01-07T05:49:16.119Z,3.74
2023-01-07T05:51:49.252Z,3.72
2023-01-07T05:54:36.104Z,3.71
2023-01-07T05:57:09.384Z,3.69
2023-01-07T05:59:56.119Z,3.69
2023-01-07T06:02:29.226Z,3.69
2023-01-07T06:05:16.126Z,3.68
2023-01-07T06:07:49.213Z,3.68
2023-01-07T06:10:36.103Z,3.68
2023-01-07T06:13:09.224Z,3.71
2023-01-07T06:15:56.122Z,3.72
2023-01-07T06:18:29.226Z,3.72
2023-01-07T06:21:16.117Z,3.73
2023-01-07T06:23:49.217Z,3.74
2023-01-07T06:26:36.120Z,3.72
2023-01-07T06:29:09.308Z,3.72
2023-01-07T06:31:56.124Z,3.72
2023-01-07T06:34:29.201Z,3.74
2023-01-07T06:37:24.128Z,3.75
2023-01-07T06:40:12.153Z,3.76
2023-01-07T06:42:45.238Z,3.75
2023-01-07T06:45:32.146Z,3.74
2023-01-07T06:48:05.247Z,3.75
2023-01-07T06:50:52.146Z,3.75
2023-01-07T06:53:25.271Z,3.75
2023-01-07T06:56:12.167Z,3.74
2023-01-07T06:58:45.238Z,3.74
2023-01-07T07:01:32.233Z,3.74
2023-01-07T07:04:12.172Z,3.75
2023-01-07T07:07:06.309Z,3.76
2023-01-07T07:09:53.167Z,3.77
2023-01-07T07:12:33.130Z,3.77
2023-01-07T07:15:27.209Z,3.78
2023-01-07T07:18:14.168Z,3.79
2023-01-07T07:20:47.292Z,3.80
2023-01-07T07:23:34.166Z,3.82
2023-01-07T07:26:07.355Z,3.84
2023-01-07T07:28:54.189Z,3.85
2023-01-07T07:31:27.413Z,3.88
2023-01-07T07:34:15.268Z,3.89
2023-01-07T07:36:48.265Z,3.93
2023-01-07T07:39:42.193Z,3.92
2023-01-07T07:43:11.885Z,3.91
2023-01-07T07:45:50.132Z,3.95
2023-01-07T07:48:44.160Z,3.96
2023-01-07T07:51:38.152Z,3.98
2023-01-07T07:54:25.159Z,4.02
2023-01-07T07:56:58.530Z,4.03
2023-01-07T07:59:45.137Z,4.03
2023-01-07T08:02:21.328Z,4.04
2023-01-07T08:05:08.180Z,4.06
2023-01-07T08:07:41.270Z,4.08
2023-01-07T08:10:29.167Z,4.09
2023-01-07T08:13:09.159Z,4.11
2023-01-07T08:15:56.209Z,4.13
2023-01-07T08:18:29.273Z,4.18
2023-01-07T08:21:18.483Z,4.22
2023-01-07T08:23:58.217Z,4.24
2023-01-07T08:26:52.172Z,4.25
2023-01-07T08:29:39.195Z,4.28
2023-01-07T08:32:12.248Z,4.30
2023-01-07T08:34:59.178Z,4.31
2023-01-07T08:37:39.204Z,4.33
2023-01-07T08:40:26.323Z,4.34
2023-01-07T08:42:59.630Z,4.34
2023-01-07T08:45:46.185Z,4.36
2023-01-07T08:48:19.292Z,4.37
2023-01-07T08:51:06.172Z,4.36
2023-01-07T08:53:40.267Z,4.38
2023-01-07T08:56:27.189Z,4.40
2023-01-07T08:59:07.280Z,4.42
2023-01-07T09:02:01.271Z,4.45
2023-01-07T09:04:48.177Z,4.46
2023-01-07T09:07:21.278Z,4.50
2023-01-07T09:10:08.198Z,4.53
2023-01-07T09:12:41.307Z,4.53
2023-01-07T09:15:28.215Z,4.51
2023-01-07T09:18:10.238Z,4.53
2023-01-07T09:21:04.248Z,4.56
2023-01-07T09:23:51.253Z,4.59
2023-01-07T09:26:24.281Z,4.61
2023-01-07T09:29:11.164Z,4.63
2023-01-07T09:31:44.339Z,4.65
2023-01-07T09:34:31.187Z,4.68
2023-01-07T09:37:04.352Z,4.69
2023-01-07T09:39:58.203Z,4.71
2023-01-07T09:43:03.189Z,4.75
2023-01-07T09:46:06.259Z,4.81
2023-01-07T09:49:05.185Z,4.86
2023-01-07T09:51:58.215Z,4.91
2023-01-07T09:54:42.364Z,4.91
2023-01-07T09:57:29.203Z,4.92
2023-01-07T10:00:10.197Z,4.92
2023-01-07T10:03:04.193Z,4.96
2023-01-07T10:06:10.195Z,4.98
2023-01-07T10:09:30.204Z,5.00
2023-01-07T10:12:21.298Z,5.03
2023-01-07T10:15:14.229Z,5.06
2023-01-07T10:17:53.357Z,5.07
2023-01-07T10:20:53.291Z,5.07
2023-01-07T10:23:30.206Z,5.09
2023-01-07T10:26:46.229Z,5.09
2023-01-07T10:29:36.205Z,5.11
2023-01-07T10:32:26.231Z,5.12
2023-01-07T10:35:03.301Z,5.13
2023-01-07T10:37:57.224Z,5.15
2023-01-07T10:40:59.218Z,5.19
2023-01-07T10:44:08.224Z,5.19
2023-01-07T10:47:20.222Z,5.22
2023-01-07T10:50:25.241Z,5.23
2023-01-07T10:53:37.233Z,5.25
2023-01-07T10:56:29.229Z,5.26
2023-01-07T10:59:02.373Z,5.27
2023-01-07T11:01:55.426Z,5.27
2023-01-07T11:04:29.312Z,5.27
2023-01-07T11:07:36.224Z,5.28
2023-01-07T11:10:11.357Z,5.30
2023-01-07T11:13:03.260Z,5.30
2023-01-07T11:15:46.364Z,5.30
2023-01-07T11:18:36.242Z,5.30
2023-01-07T11:21:09.315Z,5.30
2023-01-07T11:24:42.244Z,5.28
2023-01-07T11:27:24.349Z,5.27
2023-01-07T11:30:23.232Z,5.27
2023-01-07T11:33:09.340Z,5.28
2023-01-07T11:36:01.386Z,5.32
2023-01-07T11:38:37.339Z,5.35
2023-01-07T11:41:30.210Z,5.39
2023-01-07T11:44:06.325Z,5.41
2023-01-07T11:46:53.270Z,5.47
2023-01-07T11:49:44.259Z,5.51
2023-01-07T11:52:31.254Z,5.55
2023-01-07T11:55:04.359Z,5.59
2023-01-07T11:58:29.450Z,5.56
2023-01-07T12:00:59.266Z,5.56
2023-01-07T12:04:05.235Z,5.56
2023-01-07T12:06:54.247Z,5.60
2023-01-07T12:09:39.247Z,5.63
2023-01-07T12:12:38.280Z,5.65
2023-01-07T12:15:31.387Z,5.64
2023-01-07T12:18:45.275Z,5.54
2023-01-07T12:21:50.382Z,5.47
2023-01-07T12:24:55.250Z,5.43
2023-01-07T12:27:54.323Z,5.46
2023-01-07T12:31:12.346Z,5.52
2023-01-07T12:34:25.272Z,5.55
2023-01-07T12:37:16.292Z,5.55
2023-01-07T12:40:20.264Z,5.52
2023-01-07T12:43:31.258Z,5.47
2023-01-07T12:46:21.345Z,5.42
2023-01-07T12:49:28.283Z,5.39
2023-01-07T12:52:23.258Z,5.35
2023-01-07T12:55:04.406Z,5.28
2023-01-07T12:57:56.256Z,5.19
2023-01-07T13:00:37.373Z,5.19
2023-01-07T13:03:47.256Z,5.17
2023-01-07T13:06:49.273Z,5.15
2023-01-07T13:10:01.281Z,5.16
2023-01-07T13:12:49.275Z,5.16
2023-01-07T13:15:43.318Z,5.15
2023-01-07T13:18:30.268Z,5.18
2023-01-07T13:21:16.312Z,5.18
2023-01-07T13:24:56.316Z,5.16
2023-01-07T13:28:01.296Z,5.17
2023-01-07T13:31:06.298Z,5.19
2023-01-07T13:34:08.313Z,5.19
2023-01-07T13:37:22.282Z,5.18
2023-01-07T13:40:45.301Z,5.13
2023-01-07T13:44:13.287Z,5.12
2023-01-07T13:46:51.388Z,5.09
2023-01-07T13:49:40.283Z,5.03
2023-01-07T13:52:34.416Z,5.01
2023-01-07T13:55:41.311Z,4.97
2023-01-07T13:58:56.304Z,4.95
2023-01-07T14:02:42.398Z,4.91
2023-01-07T14:05:41.302Z,4.89
2023-01-07T14:08:35.287Z,4.88
2023-01-07T14:11:08.380Z,4.90
2023-01-07T14:14:05.290Z,4.88
2023-01-07T14:16:47.397Z,5.00
2023-01-07T14:19:55.313Z,5.02
2023-01-07T14:22:59.284Z,5.12
2023-01-07T14:25:59.309Z,5.11
2023-01-07T14:28:56.316Z,5.06
2023-01-07T14:31:35.490Z,5.02
2023-01-07T14:34:29.293Z,5.03
2023-01-07T14:37:12.471Z,5.01
2023-01-07T14:40:06.366Z,4.96
2023-01-07T14:43:00.317Z,4.90
2023-01-07T14:45:54.347Z,4.88
2023-01-07T14:48:43.297Z,4.82
2023-01-07T14:51:28.474Z,4.96
2023-01-07T14:54:39.302Z,5.20
2023-01-07T14:57:31.501Z,5.14
2023-01-07T15:00:37.329Z,5.06
2023-01-07T15:03:23.450Z,4.95
2023-01-07T15:06:28.314Z,4.85
2023-01-07T15:09:29.306Z,4.78
2023-01-07T15:12:44.333Z,4.67
2023-01-07T15:15:48.334Z,4.60
2023-01-07T15:18:55.314Z,4.53
2023-01-07T15:21:57.316Z,4.47
2023-01-07T15:24:36.460Z,4.44
2023-01-07T15:27:48.322Z,4.39
2023-01-07T15:30:34.339Z,4.35
2023-01-07T15:33:33.323Z,4.34
2023-01-07T15:36:22.384Z,4.29
2023-01-07T15:39:05.476Z,4.26
2023-01-07T15:41:52.322Z,4.19
2023-01-07T15:44:39.597Z,4.16
2023-01-07T15:47:54.333Z,4.17
2023-01-07T15:50:49.351Z,4.18
2023-01-07T15:53:36.363Z,4.19
2023-01-07T15:56:25.367Z,4.17
2023-01-07T15:59:21.345Z,4.17
2023-01-07T16:02:22.146Z,4.19
2023-01-07T16:05:08.392Z,4.16
2023-01-07T16:08:05.336Z,4.17
2023-01-07T16:11:10.364Z,4.17
2023-01-07T16:13:50.340Z,4.17
2023-01-07T16:16:45.358Z,4.16
2023-01-07T16:19:32.364Z,4.13
2023-01-07T16:22:07.498Z,4.10
2023-01-07T16:25:00.383Z,4.05
2023-01-07T16:27:44.566Z,4.03
2023-01-07T16:30:31.359Z,4.01
2023-01-07T16:33:05.678Z,4.01
2023-01-07T16:35:54.369Z,3.99
2023-01-07T16:38:28.462Z,3.98
2023-01-07T16:41:26.350Z,3.97
2023-01-07T16:44:08.355Z,3.96
2023-01-07T16:47:12.335Z,3.94
2023-01-07T16:49:55.369Z,3.91
2023-01-07T16:53:02.352Z,3.87
2023-01-07T16:55:51.395Z,3.87
2023-01-07T16:58:53.510Z,3.91
2023-01-07T17:01:41.371Z,3.93
2023-01-07T17:04:23.842Z,3.91
2023-01-07T17:07:10.383Z,3.88
2023-01-07T17:09:45.501Z,3.89
2023-01-07T17:12:47.362Z,3.90
2023-01-07T17:15:48.384Z,3.89
2023-01-07T17:18:42.377Z,3.89
2023-01-07T17:21:55.380Z,3.90
2023-01-07T17:24:45.371Z,3.90
2023-01-07T17:27:30.501Z,3.88
2023-01-07T17:30:28.383Z,3.88
2023-01-07T17:33:08.467Z,3.84
2023-01-07T17:36:04.388Z,3.81
2023-01-07T17:38:59.368Z,3.81
2023-01-07T17:42:13.385Z,3.83
2023-01-07T17:45:00.368Z,3.83
2023-01-07T17:47:40.381Z,3.85
2023-01-07T17:50:27.381Z,3.84
2023-01-07T17:53:01.545Z,3.86
2023-01-07T17:55:48.388Z,3.88
2023-01-07T17:58:33.541Z,3.88
2023-01-07T18:01:23.517Z,3.89
2023-01-07T18:03:58.489Z,3.89
2023-01-07T18:06:48.400Z,3.90
2023-01-07T18:09:21.503Z,3.91
2023-01-07T18:12:26.399Z,3.91
2023-01-07T18:14:59.601Z,3.91
2023-01-07T18:17:46.375Z,3.91
2023-01-07T18:20:27.434Z,3.90
2023-01-07T18:23:24.386Z,3.90
2023-01-07T18:26:12.411Z,3.85
2023-01-07T18:28:46.483Z,3.87
2023-01-07T18:31:33.443Z,3.85
2023-01-07T18:34:06.487Z,3.87
2023-01-07T18:36:53.392Z,3.88
2023-01-07T18:39:33.410Z,3.89
2023-01-07T18:42:27.385Z,3.87
2023-01-07T18:45:14.411Z,3.83
2023-01-07T18:47:47.551Z,3.78
2023-01-07T18:50:34.400Z,3.74
2023-01-07T18:53:07.544Z,3.72
2023-01-07T18:56:04.343Z,3.67
2023-01-07T18:58:45.889Z,3.68
2023-01-07T19:01:32.474Z,3.67
2023-01-07T19:04:06.749Z,3.63
2023-01-07T19:06:53.434Z,3.58
2023-01-07T19:09:27.534Z,3.55
2023-01-07T19:12:14.474Z,3.52
2023-01-07T19:14:55.452Z,3.50
2023-01-07T19:17:42.474Z,3.50
2023-01-07T19:20:23.425Z,3.49
2023-01-07T19:23:10.407Z,3.45
2023-01-07T19:25:43.609Z,3.49
2023-01-07T19:28:30.417Z,3.48
2023-01-07T19:31:03.549Z,3.45
2023-01-07T19:33:50.422Z,3.45
2023-01-07T19:36:30.411Z,3.45
2023-01-07T19:39:29.417Z,3.42
2023-01-07T19:42:26.400Z,3.44
2023-01-07T19:45:13.537Z,3.43
2023-01-07T19:47:47.617Z,3.47
2023-01-07T19:50:37.467Z,3.47
2023-01-07T19:53:18.473Z,3.47
2023-01-07T19:56:14.417Z,3.45
2023-01-07T19:59:01.436Z,3.46
2023-01-07T20:01:36.380Z,3.48
2023-01-07T20:04:23.467Z,3.47
2023-01-07T20:06:56.571Z,3.47
2023-01-07T20:09:43.485Z,3.46
2023-01-07T20:12:16.563Z,3.47
2023-01-07T20:15:03.428Z,3.47
2023-01-07T20:17:36.619Z,3.46
2023-01-07T20:20:23.469Z,3.46
2023-01-07T20:22:58.755Z,3.45
2023-01-07T20:25:49.437Z,3.44
2023-01-07T20:28:22.584Z,3.42
2023-01-07T20:31:15.439Z,3.42
2023-01-07T20:33:50.565Z,3.40
2023-01-07T20:36:33.458Z,3.35
2023-01-07T20:39:28.484Z,3.34
2023-01-07T20:42:22.479Z,3.34
2023-01-07T20:45:09.455Z,3.32
2023-01-07T20:47:49.425Z,3.31
2023-01-07T20:50:43.443Z,3.31
2023-01-07T20:53:39.432Z,3.30
2023-01-07T20:56:28.483Z,3.29
2023-01-07T20:59:01.681Z,3.29
2023-01-07T21:01:49.935Z,3.30
2023-01-07T21:04:23.608Z,3.31
2023-01-07T21:07:10.479Z,3.31
2023-01-07T21:09:44.932Z,3.34
2023-01-07T21:12:31.530Z,3.36
2023-01-07T21:15:04.621Z,3.34
2023-01-07T21:17:51.508Z,3.33
2023-01-07T21:20:31.461Z,3.34
2023-01-07T21:23:18.484Z,3.34
2023-01-07T21:25:54.618Z,3.34
2023-01-07T21:28:41.524Z,3.34
2023-01-07T21:31:17.690Z,3.34
2023-01-07T21:34:04.485Z,3.36
2023-01-07T21:36:44.478Z,3.36
2023-01-07T21:39:38.478Z,3.38
2023-01-07T21:42:25.510Z,3.41
2023-01-07T21:44:58.573Z,3.42
2023-01-07T21:47:45.498Z,3.42
2023-01-07T21:50:18.719Z,3.43
2023-01-07T21:53:05.540Z,3.43
2023-01-07T21:55:46.492Z,3.42
2023-01-07T21:58:40.479Z,3.42
2023-01-07T22:01:27.667Z,3.41
2023-01-07T22:04:03.703Z,3.42
2023-01-07T22:06:50.497Z,3.39
2023-01-07T22:09:25.266Z,3.40
2023-01-07T22:12:11.516Z,3.39
2023-01-07T22:14:51.516Z,3.41
2023-01-07T22:17:48.486Z,3.43
2023-01-07T22:20:44.493Z,3.42
2023-01-07T22:23:38.480Z,3.43
2023-01-07T22:26:33.502Z,3.42
2023-01-07T22:29:23.535Z,3.41
2023-01-07T22:31:56.763Z,3.39
2023-01-07T22:34:43.513Z,3.38
2023-01-07T22:37:26.417Z,3.38
2023-01-07T22:40:20.502Z,3.39
2023-01-07T22:43:12.491Z,3.39
2023-01-07T22:46:08.573Z,3.38
2023-01-07T22:49:02.585Z,3.38
2023-01-07T22:51:54.502Z,3.37
2023-01-07T22:54:27.599Z,3.39
2023-01-07T22:57:16.497Z,3.40
2023-01-07T22:59:52.619Z,3.38
2023-01-07T23:02:33.529Z,3.39
2023-01-07T23:05:20.503Z,3.39
2023-01-07T23:08:10.495Z,3.38
2023-01-07T23:10:51.512Z,3.38
2023-01-07T23:13:42.236Z,3.39
2023-01-07T23:16:22.544Z,3.39
2023-01-07T23:19:17.374Z,3.40
2023-01-07T23:22:04.510Z,3.38
2023-01-07T23:24:37.647Z,3.40
2023-01-07T23:27:24.511Z,3.39
2023-01-07T23:29:58.674Z,3.39
2023-01-07T23:32:45.595Z,3.41
2023-01-07T23:35:19.668Z,3.41
2023-01-07T23:38:06.575Z,3.42
2023-01-07T23:40:40.430Z,3.42
2023-01-07T23:43:27.592Z,3.40
2023-01-07T23:46:03.692Z,3.37
2023-01-07T23:48:50.582Z,3.35
2023-01-07T23:51:25.662Z,3.35
2023-01-07T23:54:12.556Z,3.34
2023-01-07T23:56:52.581Z,3.33
2023-01-07T23:59:39.569Z,3.30
